KSFQ

Details ICAO KSFQ
Name SUFFOLK EXECUTIVE
Region United States
Timezone America/New_York (UTC-4.0)
Plans Departing 21
Arriving 17
Stats Elevation 72 ft / 22 m (AMSL)
Location 36.682200° -76.600800°
Runways 2
Magnetic Variation 10.713° W
Sunrise 2021-08-02 10:14:28 UTC / 2021-08-02 06:14:28 Local
Sunset 2021-08-03 00:13:18 UTC / 2021-08-02 20:13:18 Local
Advertisement - Login to hide

Runways

ID Width Length Bearing (true/mag) Surface Threshold Overrun Markings Lighting
04 98 ft / 30 m 5,005 ft / 1,526 m 30.10° / 40.82° ASPHALT 213 ft / 65 m 0 ft / 0 m APP EDGE THRESHOLD REIL-OMNI
07 98 ft / 30 m 4,467 ft / 1,362 m 63.60° / 74.31° ASPHALT 180 ft / 55 m 364 ft / 111 m APP EDGE THRESHOLD
22 98 ft / 30 m 5,005 ft / 1,526 m 210.11° / 220.82° ASPHALT 213 ft / 65 m 0 ft / 0 m APP EDGE THRESHOLD REIL-OMNI
25 98 ft / 30 m 4,467 ft / 1,362 m 243.61° / 254.32° ASPHALT 0 ft / 0 m 0 ft / 0 m APP EDGE THRESHOLD

Map

Weather


0- 5 10 15 20 25 30 35+ Temperature / °C

Clouds and Precipitation
Forecast for 2021-08-03 00:00 UTC. Updated 5 hours ago

Ground ~20,000 ft ~40,000 ft Winds

METAR

KSFQ 030235Z AUTO 00000KT 10SM BKN065 21/19 A3010 RMK AO2 T02100191

TAF

Not found

Frequencies

Unicom 122.70 MHz CTAF/UNICOM
Approach 127.90 MHz NORFOLK APP/DEP
Recorded 119.37 MHz AWOS 3
Warning: Do not use this data for real-world aviation or navigation. No guarantee of current accuracy is given.